Time;durP1;ratioP1;P1;durP2;ratioP2;P2;SDS_P1;SDS_P2;PMS_P1;PMS_P2;Temp;Humidity;BMP_temperature;BMP_pressure;BME280_temperature;BME280_humidity;BME280_pressure;Samples;Min_cycle;Max_cycle;Signal;HPM_P1;HPM_P2
2023/06/29 00:02:04;;;;;;;4.90;3.50;;;;;;;;;;5017155;28;20046;-22
2023/06/29 00:04:32;;;;;;;3.88;3.50;;;;;;;;;;5016736;28;20053;-23
2023/06/29 00:07:02;;;;;;;3.70;3.40;;;;;;;;;;5017138;28;20118;-23
2023/06/29 00:09:29;;;;;;;7.00;3.63;;;;;;;;;;5017343;28;20068;-22
2023/06/29 00:11:55;;;;;;;3.30;3.00;;;;;;;;;;5016976;28;20040;-22
2023/06/29 00:14:21;;;;;;;6.50;3.58;;;;;;;;;;5017155;28;20385;-23
2023/06/29 00:16:50;;;;;;;4.35;2.97;;;;;;;;;;5016951;28;20505;-23
2023/06/29 00:19:16;;;;;;;4.88;3.88;;;;;;;;;;5016847;28;20036;-21
2023/06/29 00:21:48;;;;;;;4.03;3.15;;;;;;;;;;5016841;28;20116;-22
2023/06/29 00:24:14;;;;;;;3.90;3.58;;;;;;;;;;5016753;28;20165;-23
2023/06/29 00:26:41;;;;;;;3.40;3.10;;;;;;;;;;5016736;28;20036;-23
2023/06/29 00:29:07;;;;;;;4.20;3.28;;;;;;;;;;5016671;28;20033;-22
2023/06/29 00:31:33;;;;;;;6.22;3.67;;;;;;;;;;5016875;28;20401;-24
2023/06/29 00:33:59;;;;;;;4.03;3.30;;;;;;;;;;5016428;28;20022;-22
2023/06/29 00:36:26;;;;;;;4.97;3.63;;;;;;;;;;5016631;28;20021;-22
2023/06/29 00:38:52;;;;;;;5.68;3.13;;;;;;;;;;5016805;28;20081;-23
2023/06/29 00:41:18;;;;;;;3.05;2.75;;;;;;;;;;5015782;28;20022;-22
2023/06/29 00:43:45;;;;;;;4.35;3.55;;;;;;;;;;5016447;28;20017;-22
2023/06/29 00:46:13;;;;;;;3.83;2.95;;;;;;;;;;5017170;28;20390;-22
2023/06/29 00:48:39;;;;;;;7.80;3.58;;;;;;;;;;5016372;28;20339;-22
2023/06/29 00:51:06;;;;;;;4.50;2.95;;;;;;;;;;5016307;28;20055;-23
2023/06/29 00:53:32;;;;;;;3.40;3.10;;;;;;;;;;5016255;28;20029;-22
2023/06/29 00:56:02;;;;;;;3.53;3.22;;;;;;;;;;5016445;28;20406;-22
2023/06/29 00:58:29;;;;;;;3.03;2.83;;;;;;;;;;5016452;28;20018;-22
2023/06/29 01:00:55;;;;;;;4.15;3.72;;;;;;;;;;5016133;28;20033;-23
2023/06/29 01:03:22;;;;;;;3.88;3.38;;;;;;;;;;5015958;28;20172;-22
2023/06/29 01:05:49;;;;;;;3.95;3.55;;;;;;;;;;4998621;28;20049;-21
2023/06/29 01:08:20;;;;;;;6.22;4.38;;;;;;;;;;5015989;28;20144;-23
2023/06/29 01:10:47;;;;;;;4.25;3.85;;;;;;;;;;5016578;28;20119;-23
2023/06/29 01:13:16;;;;;;;4.07;3.60;;;;;;;;;;5015920;28;20113;-23
2023/06/29 01:15:43;;;;;;;4.28;3.38;;;;;;;;;;5016062;28;20034;-22
2023/06/29 01:18:12;;;;;;;4.50;3.13;;;;;;;;;;5016108;28;20101;-22
2023/06/29 01:20:38;;;;;;;5.20;3.13;;;;;;;;;;5015730;28;20026;-22
2023/06/29 01:23:25;;;;;;;5.32;3.85;;;;;;;;;;5015929;28;20026;-22
2023/06/29 01:25:51;;;;;;;3.92;3.53;;;;;;;;;;5015602;28;20028;-22
2023/06/29 01:28:17;;;;;;;4.65;3.30;;;;;;;;;;5015922;28;20401;-21
2023/06/29 01:30:50;;;;;;;3.75;3.42;;;;;;;;;;5015625;28;20036;-23
2023/06/29 01:33:17;;;;;;;5.20;3.80;;;;;;;;;;5015780;28;20353;-23
2023/06/29 01:35:43;;;;;;;6.75;4.05;;;;;;;;;;4998917;28;20034;-23
2023/06/29 01:38:16;;;;;;;9.25;3.60;;;;;;;;;;5016037;28;20041;-22
2023/06/29 01:40:44;;;;;;;3.55;3.25;;;;;;;;;;5015463;28;20488;-23
2023/06/29 01:43:10;;;;;;;3.75;3.45;;;;;;;;;;5015282;28;20064;-24
2023/06/29 01:45:36;;;;;;;6.00;3.30;;;;;;;;;;5015364;28;20022;-23
2023/06/29 01:48:04;;;;;;;4.45;3.17;;;;;;;;;;5015560;28;20030;-23
2023/06/29 01:50:30;;;;;;;5.63;3.92;;;;;;;;;;5015550;28;20033;-23
2023/06/29 01:52:56;;;;;;;3.00;2.70;;;;;;;;;;5015104;28;20429;-23
2023/06/29 01:55:23;;;;;;;6.80;4.22;;;;;;;;;;5015100;28;20069;-23
2023/06/29 01:57:49;;;;;;;3.72;3.28;;;;;;;;;;5015175;28;20034;-22
2023/06/29 02:00:15;;;;;;;5.22;3.60;;;;;;;;;;5015134;28;20043;-22
2023/06/29 02:02:41;;;;;;;3.38;3.08;;;;;;;;;;5015056;28;20441;-23
2023/06/29 02:05:08;;;;;;;3.72;3.20;;;;;;;;;;5015091;28;20365;-22
2023/06/29 02:07:34;;;;;;;3.50;3.20;;;;;;;;;;5015007;28;20037;-21
2023/06/29 02:10:00;;;;;;;3.97;3.42;;;;;;;;;;5014980;28;20491;-22
2023/06/29 02:12:26;;;;;;;3.88;2.70;;;;;;;;;;5015136;28;20026;-23
2023/06/29 02:14:52;;;;;;;3.72;3.33;;;;;;;;;;5014817;28;20401;-23
2023/06/29 02:17:19;;;;;;;3.70;3.30;;;;;;;;;;5015201;28;20017;-22
2023/06/29 02:19:45;;;;;;;3.13;2.92;;;;;;;;;;5014913;28;20048;-23
2023/06/29 02:22:11;;;;;;;3.83;3.38;;;;;;;;;;5015005;28;20029;-22
2023/06/29 02:24:37;;;;;;;5.80;3.35;;;;;;;;;;5014847;28;20475;-22
2023/06/29 02:27:03;;;;;;;4.80;3.22;;;;;;;;;;5014725;28;20057;-21
2023/06/29 02:29:30;;;;;;;3.22;2.92;;;;;;;;;;5015077;28;20086;-23
2023/06/29 02:31:56;;;;;;;3.03;2.83;;;;;;;;;;5014672;28;20053;-23
2023/06/29 02:34:22;;;;;;;3.53;3.13;;;;;;;;;;5014676;28;20540;-23
2023/06/29 02:36:48;;;;;;;4.13;3.72;;;;;;;;;;5014710;28;20105;-24
2023/06/29 02:39:14;;;;;;;7.57;3.00;;;;;;;;;;5014686;28;20026;-22
2023/06/29 02:41:40;;;;;;;3.33;3.03;;;;;;;;;;5014691;28;20045;-22
2023/06/29 02:44:06;;;;;;;3.88;3.45;;;;;;;;;;4997272;28;20022;-21
2023/06/29 02:46:32;;;;;;;4.55;2.80;;;;;;;;;;5014674;28;20030;-23
2023/06/29 02:48:58;;;;;;;3.75;3.13;;;;;;;;;;5014862;28;20044;-23
2023/06/29 02:51:25;;;;;;;2.90;2.60;;;;;;;;;;5014642;28;20030;-22
2023/06/29 02:53:51;;;;;;;3.03;2.83;;;;;;;;;;5014526;28;20022;-22
2023/06/29 02:56:17;;;;;;;4.18;3.08;;;;;;;;;;5014491;28;20423;-22
2023/06/29 02:58:43;;;;;;;3.75;3.30;;;;;;;;;;5014767;28;20032;-22
2023/06/29 03:01:09;;;;;;;2.90;2.70;;;;;;;;;;5014488;28;20049;-22
2023/06/29 03:03:35;;;;;;;2.85;2.60;;;;;;;;;;5014438;28;20037;-22
2023/06/29 03:06:01;;;;;;;3.97;3.13;;;;;;;;;;5017689;28;20133;-21
2023/06/29 03:08:27;;;;;;;3.08;2.88;;;;;;;;;;5018282;28;20037;-21
2023/06/29 03:10:54;;;;;;;3.17;2.97;;;;;;;;;;5018154;28;20021;-22
2023/06/29 03:13:20;;;;;;;3.78;2.90;;;;;;;;;;5018227;28;20037;-23
2023/06/29 03:15:46;;;;;;;3.95;2.72;;;;;;;;;;5018053;28;20026;-23
2023/06/29 03:18:12;;;;;;;3.13;2.83;;;;;;;;;;5018332;28;20033;-23
2023/06/29 03:20:38;;;;;;;3.45;3.15;;;;;;;;;;5018071;28;20334;-23
2023/06/29 03:23:04;;;;;;;4.00;2.67;;;;;;;;;;5017880;28;20026;-21
2023/06/29 03:25:30;;;;;;;3.45;3.17;;;;;;;;;;5018217;28;20033;-21
2023/06/29 03:27:56;;;;;;;4.90;2.85;;;;;;;;;;5017942;28;20022;-22
2023/06/29 03:30:22;;;;;;;3.83;2.95;;;;;;;;;;5017837;28;20025;-23
2023/06/29 03:32:48;;;;;;;4.20;3.83;;;;;;;;;;5017969;28;20022;-23
2023/06/29 03:35:15;;;;;;;5.93;3.00;;;;;;;;;;5017691;28;20026;-22
2023/06/29 03:37:41;;;;;;;3.00;2.70;;;;;;;;;;5017749;28;20036;-22
2023/06/29 03:40:07;;;;;;;3.58;3.28;;;;;;;;;;5017900;28;20099;-22
2023/06/29 03:42:33;;;;;;;3.63;3.33;;;;;;;;;;5017892;28;20433;-22
2023/06/29 03:45:00;;;;;;;3.45;3.20;;;;;;;;;;5017491;28;20468;-22
2023/06/29 03:47:26;;;;;;;3.47;3.17;;;;;;;;;;5017446;28;20052;-23
2023/06/29 03:49:52;;;;;;;3.40;3.08;;;;;;;;;;5017953;28;20038;-23
2023/06/29 03:52:18;;;;;;;3.38;3.08;;;;;;;;;;5017628;28;20124;-23
2023/06/29 03:54:44;;;;;;;3.42;3.10;;;;;;;;;;5017289;28;20040;-22
2023/06/29 03:57:10;;;;;;;3.90;2.97;;;;;;;;;;5017295;28;20133;-22
2023/06/29 03:59:36;;;;;;;4.53;3.70;;;;;;;;;;5017201;28;20054;-23
2023/06/29 04:02:03;;;;;;;3.10;2.83;;;;;;;;;;5017266;28;20041;-23
2023/06/29 04:04:29;;;;;;;3.00;2.80;;;;;;;;;;5016931;28;20026;-24
2023/06/29 04:06:55;;;;;;;2.95;2.75;;;;;;;;;;5017013;28;20076;-22
2023/06/29 04:09:22;;;;;;;3.42;3.13;;;;;;;;;;5016982;28;20050;-21
2023/06/29 04:11:48;;;;;;;3.60;3.30;;;;;;;;;;5016890;28;20457;-23
2023/06/29 04:14:14;;;;;;;4.13;3.08;;;;;;;;;;5017088;28;20033;-25
2023/06/29 04:16:40;;;;;;;3.53;3.22;;;;;;;;;;5015760;28;20093;-22
2023/06/29 04:19:06;;;;;;;3.60;3.38;;;;;;;;;;5016775;28;20018;-24
2023/06/29 04:21:32;;;;;;;3.17;2.92;;;;;;;;;;5017294;28;20353;-23
2023/06/29 04:23:58;;;;;;;3.08;2.88;;;;;;;;;;5016736;28;20365;-21
2023/06/29 04:26:27;;;;;;;3.60;3.20;;;;;;;;;;5016558;28;20073;-22
2023/06/29 04:29:00;;;;;;;3.50;3.20;;;;;;;;;;5016821;28;20034;-23
2023/06/29 04:31:28;;;;;;;3.70;3.22;;;;;;;;;;5016544;28;20026;-25
2023/06/29 04:33:54;;;;;;;3.63;3.33;;;;;;;;;;5016507;28;20045;-22
2023/06/29 04:36:21;;;;;;;3.45;3.15;;;;;;;;;;5016201;28;20075;-22
2023/06/29 04:38:47;;;;;;;3.10;2.90;;;;;;;;;;5017384;28;20030;-22
2023/06/29 04:41:14;;;;;;;4.15;3.08;;;;;;;;;;5017162;28;20403;-23
2023/06/29 04:43:40;;;;;;;4.00;3.60;;;;;;;;;;5016372;28;20345;-23
2023/06/29 04:46:06;;;;;;;3.10;2.83;;;;;;;;;;5016372;28;20036;-23
2023/06/29 04:48:41;;;;;;;2.70;2.50;;;;;;;;;;5016343;28;20057;-23
2023/06/29 04:51:07;;;;;;;4.57;2.78;;;;;;;;;;5016765;28;20022;-23
2023/06/29 04:53:36;;;;;;;3.95;3.03;;;;;;;;;;5015886;28;20109;-22
2023/06/29 04:56:03;;;;;;;4.82;2.72;;;;;;;;;;5016077;28;20329;-23
2023/06/29 04:58:29;;;;;;;4.05;3.30;;;;;;;;;;5015865;28;20052;-23
2023/06/29 05:00:55;;;;;;;3.60;3.30;;;;;;;;;;5015942;28;20096;-23
2023/06/29 05:03:22;;;;;;;4.35;3.72;;;;;;;;;;5016077;28;20025;-23
2023/06/29 05:05:48;;;;;;;4.97;2.80;;;;;;;;;;5015724;28;20052;-23
2023/06/29 05:08:14;;;;;;;5.13;4.57;;;;;;;;;;4998393;28;20349;-22
2023/06/29 05:10:40;;;;;;;9.88;4.78;;;;;;;;;;5015691;28;20030;-22
2023/06/29 05:13:06;;;;;;;3.70;3.40;;;;;;;;;;5015557;28;20367;-22
2023/06/29 05:15:32;;;;;;;3.90;3.50;;;;;;;;;;5015783;28;20481;-23
2023/06/29 05:17:58;;;;;;;5.70;3.17;;;;;;;;;;5015749;28;20045;-23
2023/06/29 05:20:24;;;;;;;6.00;3.80;;;;;;;;;;5015437;28;20045;-23
2023/06/29 05:22:50;;;;;;;5.32;3.63;;;;;;;;;;5015611;28;20037;-23
2023/06/29 05:25:17;;;;;;;7.38;5.15;;;;;;;;;;5015451;28;20030;-23
2023/06/29 05:27:43;;;;;;;7.05;3.92;;;;;;;;;;5015619;28;20322;-23
2023/06/29 05:30:09;;;;;;;3.70;3.40;;;;;;;;;;5015718;28;20021;-23
2023/06/29 05:32:36;;;;;;;3.58;3.25;;;;;;;;;;5015274;28;20041;-22
2023/06/29 05:35:02;;;;;;;4.88;3.63;;;;;;;;;;5015333;28;20064;-22
2023/06/29 05:37:32;;;;;;;4.82;3.47;;;;;;;;;;5015542;28;20101;-22
2023/06/29 05:39:58;;;;;;;5.28;3.65;;;;;;;;;;5015206;28;20090;-22
2023/06/29 05:42:24;;;;;;;11.18;3.83;;;;;;;;;;5015377;28;20020;-23
2023/06/29 05:44:50;;;;;;;6.32;4.15;;;;;;;;;;5015101;28;20398;-23
2023/06/29 05:47:18;;;;;;;6.25;3.42;;;;;;;;;;5015254;28;20021;-23
2023/06/29 05:49:45;;;;;;;3.55;3.25;;;;;;;;;;5015361;28;20092;-23
2023/06/29 05:52:11;;;;;;;4.22;3.83;;;;;;;;;;5015065;28;20030;-24
2023/06/29 05:54:38;;;;;;;3.55;3.30;;;;;;;;;;5015092;28;20030;-24
2023/06/29 05:57:04;;;;;;;3.58;3.28;;;;;;;;;;5015022;28;20026;-22
2023/06/29 05:59:30;;;;;;;4.72;3.20;;;;;;;;;;5015013;28;20476;-23
2023/06/29 06:04:31;;;;;;;3.53;3.22;;;;;;;;;;5053083;28;20167;-22
2023/06/29 06:06:58;;;;;;;4.47;4.13;;;;;;;;;;5054921;28;20055;-22
2023/06/29 06:09:24;;;;;;;5.50;3.55;;;;;;;;;;5037044;28;20036;-22
2023/06/29 06:11:50;;;;;;;3.95;3.55;;;;;;;;;;5054489;28;20104;-22
2023/06/29 06:14:16;;;;;;;5.53;4.45;;;;;;;;;;5054715;28;20024;-22
2023/06/29 06:16:43;;;;;;;5.32;4.53;;;;;;;;;;5054448;28;20497;-23
2023/06/29 06:19:09;;;;;;;4.65;3.88;;;;;;;;;;5054472;28;20030;-22
2023/06/29 06:21:35;;;;;;;6.60;3.55;;;;;;;;;;5054669;28;20098;-24
2023/06/29 06:24:01;;;;;;;5.00;3.97;;;;;;;;;;5054342;28;20021;-23
2023/06/29 06:26:28;;;;;;;4.50;4.15;;;;;;;;;;5054291;28;20060;-23
2023/06/29 06:28:54;;;;;;;5.55;3.90;;;;;;;;;;5054270;28;20020;-23
2023/06/29 06:31:20;;;;;;;4.10;3.70;;;;;;;;;;5054279;28;20040;-23
2023/06/29 06:33:46;;;;;;;3.92;3.50;;;;;;;;;;5054525;28;20139;-23
2023/06/29 06:36:12;;;;;;;6.10;3.85;;;;;;;;;;5054744;28;20493;-22
2023/06/29 06:38:39;;;;;;;9.73;3.92;;;;;;;;;;5054265;28;20078;-22
2023/06/29 06:41:05;;;;;;;9.48;3.95;;;;;;;;;;5057331;28;20032;-22
2023/06/29 06:43:31;;;;;;;5.13;3.65;;;;;;;;;;5058097;28;20036;-22
2023/06/29 06:45:57;;;;;;;6.28;3.83;;;;;;;;;;5058444;28;20070;-23
2023/06/29 06:48:23;;;;;;;4.38;3.90;;;;;;;;;;5058272;28;20029;-23
2023/06/29 06:50:49;;;;;;;5.32;3.70;;;;;;;;;;5058650;28;20025;-23
2023/06/29 06:53:15;;;;;;;8.20;4.80;;;;;;;;;;5040324;28;20471;-24
2023/06/29 06:55:41;;;;;;;3.85;3.38;;;;;;;;;;5058192;28;20021;-23
2023/06/29 06:58:07;;;;;;;5.35;4.18;;;;;;;;;;5058207;28;20021;-22
2023/06/29 07:00:34;;;;;;;3.95;3.60;;;;;;;;;;5057819;28;20054;-22
2023/06/29 07:03:00;;;;;;;4.53;4.13;;;;;;;;;;5057785;28;20136;-22
2023/06/29 07:05:26;;;;;;;5.55;3.97;;;;;;;;;;5057748;28;20025;-23
2023/06/29 07:07:53;;;;;;;5.05;4.47;;;;;;;;;;5057819;28;20069;-24
2023/06/29 07:10:19;;;;;;;9.07;4.15;;;;;;;;;;5057738;28;20029;-24
2023/06/29 07:12:46;;;;;;;5.57;3.90;;;;;;;;;;5057640;28;20049;-24
2023/06/29 07:15:12;;;;;;;5.80;4.18;;;;;;;;;;5057543;28;20086;-23
2023/06/29 07:17:38;;;;;;;12.10;3.92;;;;;;;;;;5057677;28;20051;-24
2023/06/29 07:20:06;;;;;;;7.30;4.55;;;;;;;;;;5057360;28;20017;-22
2023/06/29 07:22:32;;;;;;;4.45;4.03;;;;;;;;;;5057336;28;20455;-22
2023/06/29 07:24:58;;;;;;;6.70;4.53;;;;;;;;;;5057698;28;20021;-24
2023/06/29 07:27:24;;;;;;;9.00;5.20;;;;;;;;;;5057651;28;20033;-23
2023/06/29 07:29:51;;;;;;;6.35;4.43;;;;;;;;;;5057380;28;20120;-22
2023/06/29 07:32:17;;;;;;;5.97;3.95;;;;;;;;;;5057278;28;20029;-23
2023/06/29 07:34:43;;;;;;;7.53;5.05;;;;;;;;;;5057332;28;20056;-22
2023/06/29 07:37:09;;;;;;;6.35;4.30;;;;;;;;;;5057600;28;20501;-24
2023/06/29 07:39:36;;;;;;;9.02;5.45;;;;;;;;;;5057494;28;20029;-23
2023/06/29 07:42:02;;;;;;;7.47;5.75;;;;;;;;;;5057332;28;20029;-21
2023/06/29 07:44:29;;;;;;;6.57;5.22;;;;;;;;;;5057072;28;20025;-21
2023/06/29 07:46:55;;;;;;;7.45;4.95;;;;;;;;;;5057082;28;20022;-23
2023/06/29 07:49:21;;;;;;;6.45;4.50;;;;;;;;;;5056902;28;20104;-24
2023/06/29 07:51:48;;;;;;;10.45;6.22;;;;;;;;;;5056703;28;20028;-23
2023/06/29 07:54:14;;;;;;;21.33;6.25;;;;;;;;;;5056935;28;20359;-22
2023/06/29 07:56:40;;;;;;;7.90;4.97;;;;;;;;;;5057295;28;20481;-23
2023/06/29 07:59:06;;;;;;;17.00;6.53;;;;;;;;;;5057031;28;20029;-23
2023/06/29 08:01:36;;;;;;;5.70;4.70;;;;;;;;;;5057255;28;20123;-21
2023/06/29 08:04:03;;;;;;;4.97;4.35;;;;;;;;;;5057193;28;20124;-24
2023/06/29 08:06:31;;;;;;;5.18;4.25;;;;;;;;;;5039754;28;20039;-23
2023/06/29 08:08:57;;;;;;;8.52;4.25;;;;;;;;;;5057156;28;20032;-24
2023/06/29 08:11:24;;;;;;;5.43;4.57;;;;;;;;;;5056676;28;20017;-22
2023/06/29 08:13:50;;;;;;;7.45;4.10;;;;;;;;;;5057041;28;20045;-23
2023/06/29 08:16:16;;;;;;;7.65;5.22;;;;;;;;;;5056686;28;20025;-23
2023/06/29 08:18:42;;;;;;;5.00;4.50;;;;;;;;;;5056912;28;20017;-24
2023/06/29 08:21:10;;;;;;;7.68;4.60;;;;;;;;;;5056819;28;20078;-22
2023/06/29 08:23:36;;;;;;;4.97;4.45;;;;;;;;;;5056902;28;20021;-22
2023/06/29 08:26:04;;;;;;;6.50;5.03;;;;;;;;;;5056271;28;20021;-22
2023/06/29 08:28:30;;;;;;;8.90;5.50;;;;;;;;;;5056208;28;20048;-23
2023/06/29 08:30:56;;;;;;;7.60;4.90;;;;;;;;;;5056247;28;20024;-23
2023/06/29 08:33:23;;;;;;;4.85;4.03;;;;;;;;;;5056116;28;20444;-22
2023/06/29 08:35:51;;;;;;;5.78;5.22;;;;;;;;;;5056325;28;20028;-23
2023/06/29 08:38:17;;;;;;;8.98;5.18;;;;;;;;;;5056128;28;20036;-22
2023/06/29 08:40:46;;;;;;;9.35;5.40;;;;;;;;;;5056187;28;20055;-24
2023/06/29 08:43:12;;;;;;;7.28;5.75;;;;;;;;;;5056076;28;20079;-22
2023/06/29 08:45:38;;;;;;;10.98;6.40;;;;;;;;;;5056201;28;20017;-22
2023/06/29 08:48:05;;;;;;;7.22;5.30;;;;;;;;;;5056047;28;20095;-21
2023/06/29 08:50:32;;;;;;;7.45;5.30;;;;;;;;;;5055854;28;20025;-22
2023/06/29 08:52:58;;;;;;;8.50;5.72;;;;;;;;;;5055740;28;20033;-23
2023/06/29 08:55:25;;;;;;;13.45;8.07;;;;;;;;;;5056125;28;20085;-23
2023/06/29 08:57:54;;;;;;;9.50;7.45;;;;;;;;;;5055939;28;20082;-22
2023/06/29 09:00:20;;;;;;;14.30;6.75;;;;;;;;;;5055623;28;20308;-24
2023/06/29 09:02:46;;;;;;;9.48;8.18;;;;;;;;;;5055107;28;20037;-22
2023/06/29 09:05:14;;;;;;;10.60;7.20;;;;;;;;;;5056018;28;20036;-22
2023/06/29 09:07:41;;;;;;;9.27;5.78;;;;;;;;;;5055503;28;20139;-22
2023/06/29 09:10:09;;;;;;;12.20;6.80;;;;;;;;;;5055685;28;20029;-24
2023/06/29 09:12:36;;;;;;;10.20;5.90;;;;;;;;;;5055329;28;20052;-23
2023/06/29 09:15:03;;;;;;;9.13;6.45;;;;;;;;;;5037764;28;20049;-23
2023/06/29 09:17:33;;;;;;;11.20;6.47;;;;;;;;;;5055360;28;20321;-23
2023/06/29 09:20:03;;;;;;;9.85;6.70;;;;;;;;;;5055203;28;20111;-22
2023/06/29 09:22:32;;;;;;;10.35;6.95;;;;;;;;;;5055297;28;20017;-22
2023/06/29 09:24:58;;;;;;;11.75;6.25;;;;;;;;;;5055090;28;20033;-23
2023/06/29 09:27:25;;;;;;;14.52;6.55;;;;;;;;;;5054754;28;20464;-22
2023/06/29 09:29:51;;;;;;;9.32;6.35;;;;;;;;;;5055035;28;20061;-22
2023/06/29 09:32:18;;;;;;;10.05;6.30;;;;;;;;;;5055342;28;20040;-22
2023/06/29 09:34:45;;;;;;;16.15;7.15;;;;;;;;;;5055311;28;20312;-22
2023/06/29 09:37:13;;;;;;;8.52;6.90;;;;;;;;;;5054746;28;20082;-22
2023/06/29 09:39:42;;;;;;;13.70;8.40;;;;;;;;;;5054713;28;20025;-26
2023/06/29 09:42:09;;;;;;;7.43;6.00;;;;;;;;;;5036983;28;20316;-22
2023/06/29 09:44:36;;;;;;;7.45;6.75;;;;;;;;;;5055165;28;20059;-21
2023/06/29 09:47:06;;;;;;;12.13;6.50;;;;;;;;;;5054645;28;20036;-24
2023/06/29 09:49:44;;;;;;;8.35;6.43;;;;;;;;;;5054477;28;20017;-23
2023/06/29 09:52:10;;;;;;;15.00;6.13;;;;;;;;;;5054564;28;20354;-23
2023/06/29 09:54:37;;;;;;;8.65;5.97;;;;;;;;;;5054202;28;20021;-23
2023/06/29 09:57:03;;;;;;;9.35;5.68;;;;;;;;;;5054305;28;20045;-24
2023/06/29 09:59:32;;;;;;;7.95;6.70;;;;;;;;;;5054242;28;20116;-24
2023/06/29 10:01:58;;;;;;;10.13;6.00;;;;;;;;;;5054276;28;20016;-22
2023/06/29 10:04:25;;;;;;;6.43;5.55;;;;;;;;;;5054007;28;20045;-23
2023/06/29 10:06:56;;;;;;;17.40;6.07;;;;;;;;;;5054467;28;20403;-22
2023/06/29 10:09:23;;;;;;;11.98;5.50;;;;;;;;;;5054394;28;20025;-22
2023/06/29 10:11:53;;;;;;;6.53;5.80;;;;;;;;;;5054004;28;20049;-22
2023/06/29 10:14:20;;;;;;;10.70;6.47;;;;;;;;;;5053824;28;20021;-24
2023/06/29 10:16:48;;;;;;;13.93;6.50;;;;;;;;;;5053872;28;20036;-23
2023/06/29 10:19:19;;;;;;;8.13;5.60;;;;;;;;;;5054089;28;20333;-23
2023/06/29 10:21:46;;;;;;;8.55;7.05;;;;;;;;;;5054141;28;20017;-22
2023/06/29 10:24:14;;;;;;;10.38;7.85;;;;;;;;;;5054097;28;20041;-24
2023/06/29 10:26:41;;;;;;;8.20;6.88;;;;;;;;;;5036545;28;20025;-21
2023/06/29 10:29:09;;;;;;;8.13;6.18;;;;;;;;;;5053881;28;20123;-23
2023/06/29 10:31:35;;;;;;;10.65;6.70;;;;;;;;;;5053763;28;20036;-24
2023/06/29 10:34:02;;;;;;;10.80;6.55;;;;;;;;;;5036220;28;20447;-23
2023/06/29 10:36:44;;;;;;;8.52;6.45;;;;;;;;;;5053873;28;20100;-23
2023/06/29 10:39:29;;;;;;;7.43;6.38;;;;;;;;;;5053689;28;20032;-25
2023/06/29 10:41:55;;;;;;;13.82;6.95;;;;;;;;;;5053818;28;20021;-22
2023/06/29 10:44:22;;;;;;;15.02;7.15;;;;;;;;;;5054034;28;20131;-22
2023/06/29 10:46:49;;;;;;;7.97;6.07;;;;;;;;;;5054289;28;20032;-23
2023/06/29 10:49:22;;;;;;;11.52;6.88;;;;;;;;;;5053917;28;20033;-23
2023/06/29 10:51:52;;;;;;;9.13;6.07;;;;;;;;;;5054228;28;20113;-22
2023/06/29 10:54:22;;;;;;;12.25;7.15;;;;;;;;;;5053886;28;20012;-23
2023/06/29 10:56:56;;;;;;;10.55;6.68;;;;;;;;;;5054106;28;20033;-23
2023/06/29 10:59:22;;;;;;;7.60;6.50;;;;;;;;;;5054196;28;20025;-23
2023/06/29 11:01:49;;;;;;;14.48;7.10;;;;;;;;;;5053832;28;20104;-24
2023/06/29 11:04:15;;;;;;;10.30;6.55;;;;;;;;;;5053647;28;20049;-24
2023/06/29 11:06:41;;;;;;;8.13;7.28;;;;;;;;;;5053902;28;20402;-24
2023/06/29 11:09:16;;;;;;;11.88;8.60;;;;;;;;;;5053815;28;20359;-23
2023/06/29 11:11:44;;;;;;;10.65;7.75;;;;;;;;;;5053919;28;20033;-23
2023/06/29 11:14:14;;;;;;;21.77;9.88;;;;;;;;;;5053906;28;20040;-24
2023/06/29 11:16:40;;;;;;;23.65;9.50;;;;;;;;;;5053649;28;20063;-24
2023/06/29 11:19:07;;;;;;;14.45;10.02;;;;;;;;;;5053914;28;20102;-23
2023/06/29 11:21:33;;;;;;;14.93;10.25;;;;;;;;;;5053798;28;20036;-22
2023/06/29 11:23:59;;;;;;;35.05;10.40;;;;;;;;;;5053430;28;20078;-23
2023/06/29 11:26:28;;;;;;;37.42;11.65;;;;;;;;;;5055409;28;20032;-24
2023/06/29 11:28:55;;;;;;;13.75;9.82;;;;;;;;;;5057168;28;20033;-21
2023/06/29 11:31:21;;;;;;;14.07;10.13;;;;;;;;;;5057173;28;20029;-23
2023/06/29 11:33:51;;;;;;;22.92;10.25;;;;;;;;;;5057006;28;20021;-23
2023/06/29 11:36:30;;;;;;;26.95;10.05;;;;;;;;;;5057151;28;20052;-23
2023/06/29 11:39:03;;;;;;;33.53;12.20;;;;;;;;;;5039685;28;20025;-21
2023/06/29 11:41:30;;;;;;;16.27;11.45;;;;;;;;;;5056968;28;20044;-22
2023/06/29 11:44:00;;;;;;;20.67;12.70;;;;;;;;;;5057133;28;20028;-23
2023/06/29 11:46:28;;;;;;;27.05;13.45;;;;;;;;;;5057003;28;20035;-22
2023/06/29 11:48:57;;;;;;;23.42;12.13;;;;;;;;;;5038966;28;20029;-22
2023/06/29 11:51:25;;;;;;;23.90;14.27;;;;;;;;;;5057586;28;20025;-25
2023/06/29 11:53:53;;;;;;;45.08;13.00;;;;;;;;;;5056623;28;20021;-23
2023/06/29 11:56:48;;;;;;;20.30;12.55;;;;;;;;;;5056556;28;20052;-22
2023/06/29 11:59:15;;;;;;;22.77;11.45;;;;;;;;;;5035881;28;20455;-23
2023/06/29 12:01:43;;;;;;;19.33;11.82;;;;;;;;;;5038839;28;20057;-23
2023/06/29 12:04:12;;;;;;;15.93;11.55;;;;;;;;;;5056443;28;20386;-22
2023/06/29 12:06:50;;;;;;;21.23;13.23;;;;;;;;;;5056713;28;20032;-23
2023/06/29 12:09:16;;;;;;;16.20;10.82;;;;;;;;;;5056092;28;20109;-23
2023/06/29 12:11:42;;;;;;;17.42;12.20;;;;;;;;;;5056115;28;20027;-23
2023/06/29 12:14:09;;;;;;;16.55;11.10;;;;;;;;;;5056204;28;20036;-23
2023/06/29 12:16:42;;;;;;;13.57;10.32;;;;;;;;;;5056370;28;20100;-22
2023/06/29 12:19:12;;;;;;;24.90;11.63;;;;;;;;;;5038450;28;20017;-23
2023/06/29 12:21:38;;;;;;;13.68;10.13;;;;;;;;;;5055996;28;20047;-24
2023/06/29 12:24:04;;;;;;;21.90;11.43;;;;;;;;;;5056118;28;20350;-22
2023/06/29 12:26:31;;;;;;;11.23;10.15;;;;;;;;;;5056031;28;20025;-22
2023/06/29 12:28:57;;;;;;;26.60;10.40;;;;;;;;;;5038521;28;20025;-22
2023/06/29 12:31:30;;;;;;;13.52;9.70;;;;;;;;;;5022250;28;20029;-23
2023/06/29 12:33:56;;;;;;;14.73;9.48;;;;;;;;;;5056156;28;20079;-23
2023/06/29 12:36:23;;;;;;;11.40;10.20;;;;;;;;;;5056288;28;20025;-23
2023/06/29 12:38:49;;;;;;;18.85;11.20;;;;;;;;;;5055726;28;20025;-22
2023/06/29 12:41:15;;;;;;;16.83;11.75;;;;;;;;;;5056878;28;20449;-23
2023/06/29 12:43:41;;;;;;;17.55;11.00;;;;;;;;;;5056040;28;20028;-23
2023/06/29 12:46:11;;;;;;;11.65;10.45;;;;;;;;;;5038429;28;20075;-23
2023/06/29 12:48:38;;;;;;;14.80;9.13;;;;;;;;;;5055855;28;20036;-23
2023/06/29 12:51:04;;;;;;;18.92;10.25;;;;;;;;;;5055889;28;20056;-22
2023/06/29 12:53:32;;;;;;;15.02;10.68;;;;;;;;;;5056056;28;20509;-23
2023/06/29 12:55:58;;;;;;;13.40;11.00;;;;;;;;;;5056084;28;20329;-23
2023/06/29 12:58:24;;;;;;;11.82;9.48;;;;;;;;;;5055713;28;20462;-22
2023/06/29 13:00:51;;;;;;;20.30;12.75;;;;;;;;;;5055662;28;20050;-23
2023/06/29 13:03:17;;;;;;;13.88;10.68;;;;;;;;;;5055583;28;20048;-21
2023/06/29 13:05:48;;;;;;;13.60;10.15;;;;;;;;;;5055635;28;20105;-23
2023/06/29 13:08:14;;;;;;;16.40;10.15;;;;;;;;;;5056255;28;20351;-24
2023/06/29 13:10:41;;;;;;;10.52;9.43;;;;;;;;;;5055823;28;20156;-23
2023/06/29 13:13:07;;;;;;;12.15;10.40;;;;;;;;;;5055432;28;20025;-23
2023/06/29 13:15:33;;;;;;;13.23;10.55;;;;;;;;;;5055340;28;20090;-23
2023/06/29 13:17:59;;;;;;;17.88;11.75;;;;;;;;;;5055389;28;20036;-25
2023/06/29 13:20:26;;;;;;;17.25;10.18;;;;;;;;;;5055643;28;20025;-22
2023/06/29 13:22:52;;;;;;;21.88;10.85;;;;;;;;;;5054974;28;20044;-22
2023/06/29 13:25:19;;;;;;;16.25;10.85;;;;;;;;;;5055403;28;20032;-22
2023/06/29 13:27:45;;;;;;;14.02;10.13;;;;;;;;;;5054990;28;20025;-23
2023/06/29 13:30:14;;;;;;;13.90;10.35;;;;;;;;;;5037538;28;20059;-22
2023/06/29 13:32:40;;;;;;;13.95;9.65;;;;;;;;;;5037445;28;20068;-23
2023/06/29 13:35:07;;;;;;;12.02;9.25;;;;;;;;;;5055593;28;20025;-22
2023/06/29 13:37:33;;;;;;;12.50;9.75;;;;;;;;;;5055306;28;20444;-21
2023/06/29 13:39:59;;;;;;;13.98;10.13;;;;;;;;;;5055178;28;20036;-21
2023/06/29 13:42:25;;;;;;;12.68;9.27;;;;;;;;;;5054765;28;20036;-22
2023/06/29 13:44:51;;;;;;;11.98;10.50;;;;;;;;;;5054918;28;20104;-23
2023/06/29 13:47:22;;;;;;;11.93;9.88;;;;;;;;;;5054697;28;20517;-22
2023/06/29 13:49:48;;;;;;;22.75;12.15;;;;;;;;;;5054960;28;20029;-22
2023/06/29 13:52:15;;;;;;;22.42;11.05;;;;;;;;;;5037062;28;20029;-23
2023/06/29 13:54:42;;;;;;;17.10;10.10;;;;;;;;;;5054667;28;20455;-23
2023/06/29 13:57:08;;;;;;;11.20;10.05;;;;;;;;;;5054777;28;20104;-29
2023/06/29 13:59:34;;;;;;;12.65;9.73;;;;;;;;;;5054735;28;20428;-24
2023/06/29 14:02:01;;;;;;;18.58;9.75;;;;;;;;;;5054408;28;20017;-22
2023/06/29 14:04:28;;;;;;;14.50;10.10;;;;;;;;;;5054519;28;20449;-23
2023/06/29 14:06:54;;;;;;;18.20;10.85;;;;;;;;;;5054386;28;20086;-22
2023/06/29 14:09:21;;;;;;;12.25;9.75;;;;;;;;;;5036870;28;20118;-22
2023/06/29 14:11:47;;;;;;;12.43;9.93;;;;;;;;;;5054584;28;20029;-23
2023/06/29 14:14:13;;;;;;;11.57;10.38;;;;;;;;;;5054334;28;20029;-23
2023/06/29 14:16:39;;;;;;;12.57;10.48;;;;;;;;;;5054519;28;20056;-23
2023/06/29 14:19:05;;;;;;;13.30;10.32;;;;;;;;;;5054251;28;20352;-23
2023/06/29 14:21:32;;;;;;;14.90;9.88;;;;;;;;;;5054010;28;20029;-22
2023/06/29 14:23:58;;;;;;;14.00;10.55;;;;;;;;;;5036187;28;20104;-23
2023/06/29 14:26:24;;;;;;;13.30;10.20;;;;;;;;;;5053769;28;20107;-23
2023/06/29 14:28:50;;;;;;;15.00;10.18;;;;;;;;;;5054368;28;20494;-23
2023/06/29 14:31:17;;;;;;;10.55;9.52;;;;;;;;;;5054177;28;20414;-23
2023/06/29 14:33:44;;;;;;;11.23;10.13;;;;;;;;;;5053967;28;20089;-23
2023/06/29 14:36:10;;;;;;;11.73;9.90;;;;;;;;;;5053911;28;20447;-21
2023/06/29 14:38:36;;;;;;;10.88;9.77;;;;;;;;;;5036409;28;20033;-22